• Join FlightAware (Why Join?)
  • Login
  • US Flag 
02:34PM EDT


 

Airport Tracker/Info


-or-


 

Live Flight TrackerFlight Track Log ✈ EJM918 ✈ 24-Jun-2013 ✈ KIAD - KHPN

Flight Track Log - Related Links

Times and Time Zones

All times are in EDT time to prevent confusion due to time zone crossing. See the EJM918 flight status page for this flight to view local times or setup timezone preferences in your user account.

Time Position Orientation Groundspeed Altitude Reporting Facility
EDT Latitude Longitude Course Direction KTS MPH feet Rate Location/Type
10:57AM 38.9610 -77.5170 311° West 199 229 2,600  Level FlightAware
10:58AM 38.9760 -77.5390 311° West 202 232 3,800 2,400 Climbing FlightAware
10:58AM 38.9960 -77.5660 314° West 212 244 4,800 1,500 Climbing FlightAware
10:58AM 39.0020 -77.5760 308° West 211 243 4,800  Level FlightAware
10:59AM 39.0180 -77.5990 312° West 211 243 4,800  Level FlightAware
10:59AM 39.0380 -77.6280 312° West 210 242 4,800  Level FlightAware
11:00AM 39.0460 -77.6390 313° West 219 252 4,800 600 Level FlightAware
11:00AM 39.0570 -77.6550 312° West 235 270 5,100 2,400 Climbing FlightAware
11:00AM 39.0820 -77.6910 312° West 273 314 6,600 3,360 Climbing FlightAware
11:01AM 39.1040 -77.7210 313° West 273 314 8,200 2,400 Climbing FlightAware
11:01AM 39.1330 -77.7530 319° Northwest 284 327 8,800 900 Climbing FlightAware
11:01AM 39.1470 -77.7580 345° North 289 333 8,800  Level FlightAware
11:02AM 39.1840 -77.7440 16° North 299 344 8,800  Level FlightAware
11:02AM 39.1970 -77.7220 53° Northeast 303 349 8,800  Level FlightAware
11:03AM 39.2080 -77.6750 73° East 304 350 8,800  Level FlightAware
11:03AM 39.2200 -77.6170 75° East 303 349 8,800  Level FlightAware
11:04AM 39.2280 -77.5760 76° East 303 349 8,800  Level FlightAware
11:04AM 39.2310 -77.5620 75° East 303 349 8,800  Level FlightAware
11:04AM 39.2440 -77.5010 75° East 303 349 8,800  Level FlightAware
11:05AM 39.2540 -77.4500 76° East 304 350 8,800  Level FlightAware
11:05AM 39.2630 -77.4100 74° East 304 350 8,800 420 Level FlightAware
11:06AM 39.2750 -77.3510 75° East 302 348 9,200 960 Climbing FlightAware
11:06AM 39.2850 -77.3010 75° East 305 351 9,800 720 Climbing FlightAware
11:07AM 39.2950 -77.2520 75° East 338 389 9,900 1,440 Climbing FlightAware
11:07AM 39.3150 -77.1560 75° East 394 453 11,500 2,700 Climbing FlightAware
11:08AM 39.3310 -77.0750 76° East 410 472 13,500 2,460 Climbing FlightAware
11:09AM 39.3300 -76.9660 91° East 420 483 14,800 1,560 Climbing FlightAware
11:09AM 39.3170 -76.8570 99° East 425 489 15,900 3,000 Climbing FlightAware
11:10AM 39.3040 -76.7530 99° East 409 471 19,100 4,080 Climbing FlightAware
11:11AM 39.2885 -76.6332 99° East 424 488 21,900 2,940 Climbing FlightAware ADS-B
11:11AM 39.2789 -76.5558 99° East 434 499 23,000 1,080 Climbing FlightAware ADS-B
11:12AM 39.2692 -76.4785 99° East 434 499 23,000  Level FlightAware ADS-B
11:12AM 39.2593 -76.4020 99° East 432 497 23,000  Level FlightAware ADS-B
11:13AM 39.2494 -76.3257 99° East 433 498 23,000  Level FlightAware ADS-B
11:13AM 39.2392 -76.2468 99° East 433 498 23,000  Level FlightAware ADS-B
11:14AM 39.2290 -76.1686 100° East 434 499 23,000  Level FlightAware ADS-B
11:15AM 39.2187 -76.0906 100° East 432 497 23,000  Level FlightAware ADS-B
11:15AM 39.2079 -76.0085 100° East 434 499 23,000  Level FlightAware ADS-B
11:15AM 39.2039 -75.9710 98° East 438 504 23,000  Level FlightAware ADS-B
11:16AM 39.2055 -75.9308 87° East 443 510 23,000  Level FlightAware ADS-B
11:16AM 39.2146 -75.8830 76° East 445 512 23,000  Level FlightAware ADS-B
11:16AM 39.2284 -75.8447 65° Northeast 443 510 23,000  Level FlightAware ADS-B
11:16AM 39.2426 -75.8178 56° Northeast 442 509 23,000  Level FlightAware ADS-B
11:17AM 39.2572 -75.7964 49° Northeast 441 507 23,000  Level FlightAware ADS-B
11:17AM 39.3022 -75.7380 45° Northeast 440 506 23,000  Level FlightAware ADS-B
11:18AM 39.3453 -75.6822 45° Northeast 441 507 23,000  Level FlightAware ADS-B
11:18AM 39.3912 -75.6223 45° Northeast 441 507 23,000  Level FlightAware ADS-B
11:19AM 39.4375 -75.5624 45° Northeast 442 509 23,000  Level FlightAware ADS-B
11:19AM 39.4819 -75.5043 45° Northeast 443 510 23,000  Level FlightAware ADS-B
11:20AM 39.5268 -75.4457 45° Northeast 442 509 23,000  Level FlightAware ADS-B
11:20AM 39.5714 -75.3875 45° Northeast 441 507 23,000  Level FlightAware ADS-B
11:21AM 39.6220 -75.3167 47° Northeast 449 517 23,000  Level FlightAware ADS-B
11:21AM 39.6306 -75.2990 58° Northeast 461 531 23,000  Level FlightAware ADS-B
11:21AM 39.6374 -75.2821 62° Northeast 470 541 23,000  Level FlightAware ADS-B
11:21AM 39.6462 -75.2534 68° East 483 556 23,000  Level FlightAware ADS-B
11:22AM 39.6647 -75.1682 74° East 494 568 23,000  Level FlightAware ADS-B
11:22AM 39.6831 -75.0818 75° East 491 565 23,000  Level FlightAware ADS-B
11:23AM 39.7035 -74.9833 75° East 488 562 23,000  Level FlightAware ADS-B
11:23AM 39.7216 -74.8968 75° East 488 562 23,000  Level FlightAware ADS-B
11:24AM 39.7391 -74.8120 75° East 488 562 23,000  Level FlightAware ADS-B
11:24AM 39.7582 -74.7199 75° East 488 562 23,000  Level FlightAware ADS-B
11:25AM 39.7766 -74.6310 75° East 489 563 23,000  Level FlightAware ADS-B
11:25AM 39.7965 -74.5341 75° East 489 563 23,000  Level FlightAware ADS-B
11:26AM 39.8060 -74.4883 75° East 489 563 23,000  Level FlightAware ADS-B
11:26AM 39.8156 -74.4546 70° East 489 563 23,000  Level FlightAware ADS-B
11:26AM 39.8302 -74.4160 64° Northeast 490 564 23,000  Level FlightAware ADS-B
11:26AM 39.8399 -74.3950 59° Northeast 489 563 23,000  Level FlightAware ADS-B
11:27AM 39.8816 -74.3198 54° Northeast 492 566 23,000  Level FlightAware ADS-B
11:27AM 39.9232 -74.2460 54° Northeast 493 567 23,000  Level FlightAware ADS-B
11:28AM 39.9656 -74.1715 53° Northeast 492 566 23,000  Level FlightAware ADS-B
11:28AM 40.0137 -74.0864 54° Northeast 490 564 23,000  Level FlightAware ADS-B
11:29AM 40.0557 -74.0114 54° Northeast 491 565 23,000  Level FlightAware ADS-B
11:29AM 40.1001 -73.9326 54° Northeast 491 565 23,000 -900 Level FlightAware ADS-B
11:30AM 40.1460 -73.8510 54° Northeast 480 552 22,000 -1,920 Descending FlightAware ADS-B
11:31AM 40.1872 -73.7774 54° Northeast 469 540 20,900 -1,920 Descending FlightAware ADS-B
11:31AM 40.2270 -73.7062 54° Northeast 459 528 20,000 -1,800 Descending FlightAware ADS-B
11:32AM 40.2688 -73.6316 54° Northeast 454 522 19,000 -1,800 Descending FlightAware ADS-B
11:32AM 40.3062 -73.5641 54° Northeast 443 510 18,100 -1,860 Descending FlightAware ADS-B
11:33AM 40.3464 -73.4964 52° Northeast 440 506 17,100 -1,800 Descending FlightAware ADS-B
11:33AM 40.3583 -73.4826 41° Northeast 431 496 16,900 -600 Descending FlightAware ADS-B
11:33AM 40.3802 -73.4625 35° Northeast 426 490 16,900  Level FlightAware ADS-B
11:33AM 40.3888 -73.4561 30° Northeast 425 489 16,900  Level FlightAware ADS-B
11:33AM 40.4117 -73.4425 24° Northeast 424 488 16,900  Level FlightAware ADS-B
11:33AM 40.4207 -73.4384 19° North 422 486 16,900  Level FlightAware ADS-B
11:34AM 40.4799 -73.4164 16° North 421 484 16,900  Level FlightAware ADS-B
11:35AM 40.5367 -73.3958 15° North 422 486 16,900 -120 Level FlightAware ADS-B
11:35AM 40.5958 -73.3744 15° North 423 487 16,800 -600 Descending FlightAware ADS-B
11:36AM 40.6513 -73.3545 15° North 401 461 16,300 -1,020 Descending FlightAware ADS-B
11:36AM 40.7049 -73.3351 15° North 367 422 15,800 -960 Descending FlightAware ADS-B
11:37AM 40.7548 -73.3171 15° North 349 402 15,300 -1,020 Descending FlightAware ADS-B
11:37AM 40.7830 -73.3031 21° North 384 442 15,000 -960 Descending FlightAware ADS-B
11:37AM 40.8165 -73.2545 48° Northeast 412 474 14,600 -1,500 Descending FlightAware ADS-B
11:38AM 40.8460 -73.1940 57° Northeast 405 466 13,600 -1,980 Descending FlightAware
11:38AM 40.8850 -73.1150 57° Northeast 395 455 12,300 -1,860 Descending FlightAware
11:39AM 40.9270 -73.0290 57° Northeast 386 444 11,000 -1,500 Descending FlightAware
11:40AM 40.9660 -72.9480 57° Northeast 340 391 10,200 -1,140 Descending FlightAware
11:40AM 40.9860 -72.9070 57° Northeast 310 357 9,800 -1,320 Descending FlightAware
11:41AM 41.0190 -72.8630 45° Northeast 288 331 8,900 -1,500 Descending FlightAware
11:41AM 41.0290 -72.8600 13° North 283 326 8,700 -600 Descending FlightAware
11:42AM 41.0620 -72.8560 North 282 325 8,500 -240 Descending FlightAware
11:42AM 41.0910 -72.8530 North 282 325 8,500  Level FlightAware
11:42AM 41.1050 -72.8510 North 282 325 8,500  Level FlightAware
11:43AM 41.1320 -72.8480 North 282 325 8,500  Level FlightAware
11:43AM 41.1600 -72.8450 North 282 325 8,500 -2,460 Level FlightAware
11:44AM 41.1333 -73.1333 North 249 287 4,000 -1,860 Descending New York TRACON
11:45AM 41.1333 -73.2167 270° West 230 265 4,000  Level New York TRACON
11:46AM 41.1500 -73.2833 288° West 231 266 4,000  Level New York TRACON
11:47AM 41.1667 -73.3667 285° West 218 251 4,000  Level New York TRACON
11:48AM 41.2000 -73.4333 304° West 222 255 4,000  Level New York TRACON
11:49AM 41.2000 -73.5000 270° West 235 270 4,000 -360 Level New York TRACON
11:55AM 40.9830 -73.6310 270° West 157 181 1,900 -420 Descending FlightAware
11:55AM 40.9980 -73.6480 319° Northwest 155 178 1,900 -660 Level FlightAware
11:56AM 41.0500 -73.6833 319° Northwest 123 142 700 -900 Descending New York TRACON
11:58AM 41.0667 -73.7000 236° Southwest  Level FlightAware Approximate
12:05PM 41.0669 -73.7076 236° Southwest  Level Estimated
12:06PM 41.0667 -73.7000 236° Southwest  Level FlightAware Approximate